createdAt,value
2019-02-20T00:01:39.485Z,19.23
2019-02-20T00:04:48.066Z,19.63
2019-02-20T00:08:06.977Z,17.93
2019-02-20T00:11:16.161Z,18.50
2019-02-20T00:14:35.075Z,19.33
2019-02-20T00:17:43.775Z,27.77
2019-02-20T00:20:52.426Z,19.10
2019-02-20T00:24:01.136Z,19.33
2019-02-20T00:27:09.705Z,18.07
2019-02-20T00:30:18.727Z,16.40
2019-02-20T00:33:27.298Z,16.90
2019-02-20T00:36:35.877Z,16.67
2019-02-20T00:39:45.010Z,19.30
2019-02-20T00:42:53.675Z,21.37
2019-02-20T00:46:36.575Z,23.27
2019-02-20T00:49:48.341Z,19.70
2019-02-20T00:53:08.631Z,19.37
2019-02-20T00:56:17.128Z,19.87
2019-02-20T00:59:25.767Z,21.07
2019-02-20T01:02:34.350Z,21.77
2019-02-20T01:05:42.940Z,15.73
2019-02-20T01:08:51.629Z,13.30
2019-02-20T01:12:10.709Z,15.07
2019-02-20T01:15:19.282Z,15.10
2019-02-20T01:18:27.875Z,18.87
2019-02-20T01:21:36.391Z,15.27
2019-02-20T01:24:44.896Z,15.83
2019-02-20T01:27:53.512Z,14.13
2019-02-20T01:31:12.398Z,15.47
2019-02-20T01:34:20.869Z,15.03
2019-02-20T01:37:29.432Z,18.57
2019-02-20T01:40:38.062Z,15.50
2019-02-20T01:43:46.523Z,18.33
2019-02-20T01:47:05.248Z,15.43
2019-02-20T01:50:13.876Z,13.30
2019-02-20T01:53:22.343Z,13.20
2019-02-20T01:56:30.926Z,18.37
2019-02-20T01:59:39.473Z,16.43
2019-02-20T02:02:58.190Z,15.80
2019-02-20T02:06:06.655Z,18.97
2019-02-20T02:09:15.282Z,14.43
2019-02-20T02:12:24.314Z,15.10
2019-02-20T02:15:33.073Z,15.60
2019-02-20T02:18:41.668Z,19.83
2019-02-20T02:21:50.240Z,15.40
2019-02-20T02:24:58.708Z,15.23
2019-02-20T02:28:17.530Z,13.87
2019-02-20T02:31:26.120Z,15.43
2019-02-20T02:34:34.765Z,17.97
2019-02-20T02:37:43.250Z,18.17
2019-02-20T02:40:51.878Z,16.50
2019-02-20T02:44:00.452Z,17.53
2019-02-20T02:47:19.286Z,16.60
2019-02-20T02:50:27.890Z,13.37
2019-02-20T02:53:36.458Z,12.27
2019-02-20T02:56:45.044Z,12.70
2019-02-20T02:59:53.846Z,17.07
2019-02-20T03:03:02.456Z,20.90
2019-02-20T03:06:22.639Z,17.00
2019-02-20T03:09:31.287Z,17.43
2019-02-20T03:12:39.940Z,14.93
2019-02-20T03:15:48.654Z,20.20
2019-02-20T03:18:57.291Z,14.63
2019-02-20T03:22:05.886Z,18.90
2019-02-20T03:25:14.637Z,16.30
2019-02-20T03:28:23.261Z,15.47
2019-02-20T03:47:04.602Z,21.63
2019-02-20T03:50:13.252Z,20.70
2019-02-20T03:53:21.870Z,22.20
2019-02-20T03:56:30.653Z,24.27
2019-02-20T03:59:39.235Z,21.47
2019-02-20T04:02:47.835Z,21.93
2019-02-20T04:05:56.383Z,28.03
2019-02-20T04:09:15.277Z,21.07
2019-02-20T04:12:23.740Z,20.53
2019-02-20T04:15:32.412Z,33.03
2019-02-20T04:18:41.200Z,28.13
2019-02-20T04:21:49.796Z,24.83
2019-02-20T04:24:58.377Z,23.07
2019-02-20T04:28:07.121Z,26.57
2019-02-20T04:31:15.824Z,25.43
2019-02-20T04:34:24.440Z,22.90
2019-02-20T04:37:43.325Z,21.57
2019-02-20T04:40:52.083Z,26.67
2019-02-20T04:44:00.884Z,22.90
2019-02-20T04:47:09.390Z,22.40
2019-02-20T04:50:18.013Z,24.67
2019-02-20T04:53:26.518Z,20.90
2019-02-20T04:56:35.100Z,20.23
2019-02-20T04:59:54.046Z,24.43
2019-02-20T05:03:02.549Z,22.27
2019-02-20T05:06:11.047Z,22.57
2019-02-20T05:09:19.711Z,21.93
2019-02-20T05:12:28.324Z,19.93
2019-02-20T05:15:36.798Z,22.43
2019-02-20T05:18:55.714Z,23.33
2019-02-20T05:22:04.217Z,24.47
2019-02-20T05:25:12.737Z,21.10
2019-02-20T05:28:21.324Z,23.83
2019-02-20T05:31:29.967Z,21.40
2019-02-20T05:34:38.630Z,21.80
2019-02-20T05:37:47.299Z,26.00
2019-02-20T05:41:06.178Z,21.90
2019-02-20T05:44:14.795Z,18.53
2019-02-20T05:47:23.387Z,24.37
2019-02-20T05:50:32.080Z,26.20
2019-02-20T05:53:40.702Z,22.47
2019-02-20T05:56:49.232Z,28.77
2019-02-20T05:59:58.458Z,23.60
2019-02-20T06:03:06.986Z,22.80
2019-02-20T06:06:15.555Z,27.17
2019-02-20T06:09:34.377Z,23.50
2019-02-20T06:12:42.962Z,20.00
2019-02-20T06:15:51.569Z,23.57
2019-02-20T06:19:00.230Z,23.93
2019-02-20T06:22:08.741Z,23.83
2019-02-20T06:25:17.387Z,27.27
2019-02-20T06:28:26.036Z,23.60
2019-02-20T06:31:33.126Z,24.03
2019-02-20T06:34:52.130Z,25.47
2019-02-20T06:38:00.877Z,25.97
2019-02-20T06:41:09.411Z,25.50
2019-02-20T06:44:17.995Z,24.73
2019-02-20T06:47:26.601Z,33.57
2019-02-20T06:50:35.283Z,23.63
2019-02-20T06:53:43.894Z,31.00
2019-02-20T06:57:02.623Z,27.20
2019-02-20T07:00:12.494Z,24.67
2019-02-20T07:03:23.627Z,25.53
2019-02-20T07:07:10.750Z,23.60
2019-02-20T07:11:03.536Z,22.93
2019-02-20T07:15:30.429Z,27.53
2019-02-20T07:19:18.158Z,27.57
2019-02-20T07:22:54.290Z,25.10
2019-02-20T07:26:37.863Z,35.17
2019-02-20T07:29:45.096Z,28.27
2019-02-20T07:32:53.687Z,25.80
2019-02-20T07:36:12.399Z,32.07
2019-02-20T07:39:21.068Z,25.53
2019-02-20T07:42:30.155Z,26.40
2019-02-20T07:45:38.862Z,27.63
2019-02-20T07:48:47.636Z,25.27
2019-02-20T07:51:56.270Z,26.73
2019-02-20T07:55:12.998Z,25.83
2019-02-20T07:58:15.347Z,23.83
2019-02-20T08:01:24.105Z,23.20
2019-02-20T08:04:39.035Z,22.87
2019-02-20T08:07:47.579Z,30.07
2019-02-20T08:10:57.373Z,26.20
2019-02-20T08:14:04.862Z,22.83
2019-02-20T08:17:23.833Z,25.80
2019-02-20T08:20:32.539Z,26.17
2019-02-20T08:23:39.518Z,26.47
2019-02-20T08:26:48.018Z,23.27
2019-02-20T08:29:56.755Z,24.57
2019-02-20T08:33:05.315Z,29.20
2019-02-20T08:36:13.951Z,24.73
2019-02-20T08:39:32.730Z,25.07
2019-02-20T08:42:41.365Z,26.90
2019-02-20T08:45:49.952Z,25.97
2019-02-20T08:48:58.701Z,21.27
2019-02-20T08:52:07.310Z,24.77
2019-02-20T08:55:15.898Z,24.43
2019-02-20T08:58:24.509Z,21.43
2019-02-20T09:01:43.253Z,24.27
2019-02-20T09:04:51.962Z,20.67
2019-02-20T09:08:01.684Z,22.63
2019-02-20T09:11:10.351Z,24.30
2019-02-20T09:14:20.050Z,20.80
2019-02-20T09:17:28.770Z,24.67
2019-02-20T09:20:37.364Z,29.07
2019-02-20T09:23:45.951Z,24.70
2019-02-20T09:26:54.533Z,24.70
2019-02-20T09:30:03.158Z,30.97
2019-02-20T09:33:11.773Z,30.13
2019-02-20T09:36:30.654Z,29.27
2019-02-20T09:39:43.143Z,21.77
2019-02-20T09:42:51.537Z,27.03
2019-02-20T09:46:01.320Z,25.73
2019-02-20T09:49:10.042Z,27.03
2019-02-20T09:52:18.675Z,29.07
2019-02-20T09:55:27.292Z,33.23
2019-02-20T09:58:35.920Z,26.47
2019-02-20T10:01:54.901Z,24.23
2019-02-20T10:05:03.507Z,25.43
2019-02-20T10:08:12.113Z,25.03
2019-02-20T10:11:20.793Z,29.73
2019-02-20T10:14:29.403Z,30.20
2019-02-20T10:17:37.993Z,30.03
2019-02-20T10:20:46.623Z,28.43
2019-02-20T10:24:05.383Z,24.73
2019-02-20T10:27:15.551Z,26.90
2019-02-20T10:30:24.148Z,29.07
2019-02-20T10:33:32.640Z,25.40
2019-02-20T10:36:41.292Z,27.43
2019-02-20T10:39:50.021Z,28.00
2019-02-20T10:42:58.713Z,28.43
2019-02-20T10:46:17.554Z,26.27
2019-02-20T10:49:26.238Z,26.30
2019-02-20T10:52:34.824Z,29.10
2019-02-20T10:55:43.436Z,35.03
2019-02-20T10:58:52.073Z,32.07
2019-02-20T11:02:00.686Z,27.50
2019-02-20T11:05:09.431Z,27.67
2019-02-20T11:08:28.206Z,30.80
2019-02-20T11:11:36.747Z,25.67
2019-02-20T11:14:45.365Z,26.97
2019-02-20T11:17:53.963Z,27.20
2019-02-20T11:21:03.964Z,26.60
2019-02-20T11:24:12.563Z,30.77
2019-02-20T11:27:31.477Z,31.57
2019-02-20T11:30:40.234Z,25.67
2019-02-20T11:33:48.777Z,26.33
2019-02-20T11:36:57.426Z,29.03
2019-02-20T11:40:07.211Z,30.10
2019-02-20T11:43:26.001Z,26.40
2019-02-20T11:46:34.523Z,23.33
2019-02-20T11:49:43.142Z,28.90
2019-02-20T11:52:51.760Z,27.37
2019-02-20T11:56:00.276Z,27.33
2019-02-20T11:59:18.980Z,23.87
2019-02-20T12:02:27.599Z,27.87
2019-02-20T12:05:36.193Z,22.37
2019-02-20T12:08:44.719Z,24.07
2019-02-20T12:11:54.749Z,25.80
2019-02-20T12:15:13.916Z,29.57
2019-02-20T12:18:32.937Z,24.50
2019-02-20T12:21:41.551Z,26.30
2019-02-20T12:24:50.146Z,23.33
2019-02-20T12:27:58.666Z,24.97
2019-02-20T12:31:07.267Z,29.20
2019-02-20T12:34:15.780Z,29.07
2019-02-20T12:37:34.640Z,28.53
2019-02-20T12:40:43.302Z,33.90
2019-02-20T12:43:51.811Z,30.90
2019-02-20T12:47:00.467Z,30.80
2019-02-20T12:50:09.674Z,33.70
2019-02-20T12:53:18.224Z,40.97
2019-02-20T12:56:26.838Z,38.30
2019-02-20T12:59:36.750Z,41.47
2019-02-20T13:02:55.593Z,41.50
2019-02-20T13:06:04.287Z,35.10
2019-02-20T13:09:13.914Z,39.50
2019-02-20T13:12:22.534Z,44.40
2019-02-20T13:15:41.337Z,41.03
2019-02-20T13:18:49.964Z,41.17
2019-02-20T13:21:58.592Z,40.07
2019-02-20T13:25:07.690Z,36.83
2019-02-20T13:28:16.208Z,40.97
2019-02-20T13:31:24.703Z,37.30
2019-02-20T13:34:31.831Z,38.43
2019-02-20T13:37:40.472Z,32.43
2019-02-20T13:40:49.091Z,37.10
2019-02-20T13:44:08.762Z,31.80
2019-02-20T13:47:18.682Z,30.47
2019-02-20T13:50:27.401Z,27.27
2019-02-20T13:53:36.034Z,27.73
2019-02-20T13:56:44.532Z,32.33
2019-02-20T14:00:03.359Z,26.47
2019-02-20T14:03:13.180Z,25.60
2019-02-20T14:06:21.964Z,24.97
2019-02-20T14:09:32.588Z,30.90
2019-02-20T14:12:41.192Z,30.00
2019-02-20T14:15:51.027Z,28.37
2019-02-20T14:18:58.759Z,28.40
2019-02-20T14:22:07.896Z,27.77
2019-02-20T14:25:16.589Z,28.57
2019-02-20T14:28:25.250Z,29.27
2019-02-20T14:31:33.898Z,24.90
2019-02-20T14:34:42.534Z,25.43
2019-02-20T14:37:51.153Z,22.47
2019-02-20T14:41:00.852Z,23.37
2019-02-20T14:44:11.056Z,22.17
2019-02-20T14:47:19.646Z,25.90
2019-02-20T14:50:28.296Z,25.83
2019-02-20T14:53:36.918Z,24.47
2019-02-20T14:56:45.917Z,29.73
2019-02-20T14:59:54.451Z,25.23
2019-02-20T15:03:03.078Z,32.90
2019-02-20T15:06:23.112Z,25.57
2019-02-20T15:09:31.855Z,26.30
2019-02-20T15:12:40.456Z,27.37
2019-02-20T15:15:49.311Z,25.77
2019-02-20T15:19:00.585Z,25.80
2019-02-20T15:22:19.619Z,24.10
2019-02-20T15:25:28.268Z,27.73
2019-02-20T15:28:36.940Z,25.97
2019-02-20T15:31:45.488Z,23.10
2019-02-20T15:34:56.798Z,20.70
2019-02-20T15:38:05.484Z,21.60
2019-02-20T15:41:14.205Z,24.00
2019-02-20T15:44:22.972Z,20.37
2019-02-20T15:47:31.579Z,18.33
2019-02-20T15:50:40.307Z,16.73
2019-02-20T15:53:48.920Z,21.90
2019-02-20T15:56:57.562Z,18.33
2019-02-20T16:00:08.758Z,16.37
2019-02-20T16:03:21.889Z,17.23
2019-02-20T16:06:30.508Z,20.27
2019-02-20T16:09:39.167Z,18.63
2019-02-20T16:12:48.139Z,17.77
2019-02-20T16:15:56.763Z,16.50
2019-02-20T16:19:05.300Z,16.13
2019-02-20T16:22:13.911Z,13.33
2019-02-20T16:25:23.837Z,13.80
2019-02-20T16:28:42.991Z,16.83
2019-02-20T16:31:51.614Z,12.40
2019-02-20T16:35:00.289Z,14.53
2019-02-20T16:38:09.842Z,12.73
2019-02-20T16:41:28.814Z,14.73
2019-02-20T16:44:37.496Z,9.93
2019-02-20T16:47:46.085Z,9.87
2019-02-20T16:50:55.510Z,11.07
2019-02-20T16:54:17.107Z,9.13
2019-02-20T16:57:24.250Z,11.97
2019-02-20T17:00:32.933Z,9.80
2019-02-20T17:03:41.829Z,7.67
2019-02-20T17:06:50.475Z,6.80
2019-02-20T17:09:59.187Z,7.90
2019-02-20T17:13:07.769Z,8.37
2019-02-20T17:16:16.303Z,9.33
2019-02-20T17:19:26.398Z,9.40
2019-02-20T17:22:45.405Z,6.47
2019-02-20T17:25:54.097Z,9.50
2019-02-20T17:29:02.703Z,8.57
2019-02-20T17:32:12.632Z,13.23
2019-02-20T17:35:21.569Z,8.63
2019-02-20T17:38:30.134Z,10.40
2019-02-20T17:41:39.438Z,6.70
2019-02-20T17:44:48.068Z,8.63
2019-02-20T17:47:56.809Z,7.93
2019-02-20T17:51:05.446Z,10.10
2019-02-20T17:54:14.045Z,8.63
2019-02-20T17:57:22.712Z,8.97
2019-02-20T18:00:41.603Z,7.53
2019-02-20T18:03:50.106Z,10.20
2019-02-20T18:06:58.816Z,8.13
2019-02-20T18:10:08.830Z,6.27
2019-02-20T18:13:17.431Z,7.40
2019-02-20T18:16:26.015Z,5.27
2019-02-20T18:19:33.016Z,7.90
2019-02-20T18:22:52.015Z,7.00
2019-02-20T18:26:00.528Z,10.13
2019-02-20T18:29:09.061Z,11.30
2019-02-20T18:32:17.572Z,8.23
2019-02-20T18:35:26.200Z,7.43
2019-02-20T18:38:45.052Z,7.03
2019-02-20T18:41:53.670Z,9.00
2019-02-20T18:45:02.244Z,16.00
2019-02-20T18:48:10.854Z,8.77
2019-02-20T18:51:19.500Z,9.47
2019-02-20T18:54:28.100Z,9.07
2019-02-20T18:57:46.888Z,9.53
2019-02-20T19:00:55.498Z,12.53
2019-02-20T19:04:04.110Z,8.53
2019-02-20T19:07:14.342Z,8.67
2019-02-20T19:10:34.560Z,9.07
2019-02-20T19:14:09.344Z,6.23
2019-02-20T19:18:37.992Z,6.47
2019-02-20T19:22:20.743Z,7.17
2019-02-20T19:26:27.342Z,8.10
2019-02-20T19:30:51.105Z,9.73
2019-02-20T19:34:42.872Z,8.73
2019-02-20T19:38:35.120Z,8.30
2019-02-20T19:42:35.924Z,10.37
2019-02-20T19:46:18.680Z,7.33
2019-02-20T19:50:28.992Z,9.00
2019-02-20T19:54:27.321Z,11.70
2019-02-20T19:58:15.506Z,13.03
2019-02-20T20:01:57.130Z,10.97
2019-02-20T20:05:53.530Z,8.00
2019-02-20T20:10:05.408Z,7.97
2019-02-20T20:13:45.512Z,11.03
2019-02-20T20:17:40.984Z,10.33
2019-02-20T20:21:10.456Z,10.43
2019-02-20T20:25:07.922Z,11.10
2019-02-20T20:29:05.534Z,10.93
2019-02-20T20:32:37.205Z,9.67
2019-02-20T20:36:30.443Z,10.13
2019-02-20T20:40:46.173Z,9.07
2019-02-20T20:44:30.060Z,11.53
2019-02-20T20:48:20.053Z,10.97
2019-02-20T20:52:27.156Z,13.17
2019-02-20T20:56:31.889Z,14.13
2019-02-20T21:00:44.203Z,9.83
2019-02-20T21:04:44.155Z,10.07
2019-02-20T21:08:43.815Z,11.07
2019-02-20T21:12:57.580Z,12.53
2019-02-20T21:16:54.745Z,13.80
2019-02-20T21:21:33.458Z,10.50
2019-02-20T21:25:39.897Z,12.53
2019-02-20T21:29:41.749Z,11.40
2019-02-20T21:33:49.635Z,8.67
2019-02-20T21:38:02.582Z,12.10
2019-02-20T21:41:36.049Z,18.30
2019-02-20T21:45:29.580Z,11.07
2019-02-20T21:49:12.061Z,14.53
2019-02-20T21:53:07.543Z,12.47
2019-02-20T21:57:00.805Z,11.20
2019-02-20T22:00:56.172Z,11.37
2019-02-20T22:04:28.082Z,15.67
2019-02-20T22:08:41.285Z,11.00
2019-02-20T22:12:27.599Z,12.20
2019-02-20T22:16:24.365Z,10.63
2019-02-20T22:20:49.176Z,12.80
2019-02-20T22:24:30.432Z,13.40
2019-02-20T22:28:17.073Z,12.43
2019-02-20T22:32:21.453Z,12.20
2019-02-20T22:36:35.418Z,12.07
2019-02-20T22:40:32.040Z,12.87
2019-02-20T22:44:40.479Z,13.93
2019-02-20T22:48:27.820Z,13.37
2019-02-20T22:52:31.405Z,14.70
2019-02-20T22:56:42.173Z,13.93
2019-02-20T23:00:34.367Z,12.00
2019-02-20T23:04:09.100Z,11.73
2019-02-20T23:07:49.621Z,13.33
2019-02-20T23:12:10.587Z,14.80
2019-02-20T23:15:19.082Z,13.37
2019-02-20T23:18:27.598Z,14.97
2019-02-20T23:21:36.070Z,17.13
2019-02-20T23:24:54.996Z,15.73
2019-02-20T23:28:03.498Z,16.00
2019-02-20T23:31:12.084Z,15.57
2019-02-20T23:34:20.698Z,15.50
2019-02-20T23:37:29.344Z,15.87
2019-02-20T23:40:38.176Z,13.10
2019-02-20T23:43:46.769Z,15.23
2019-02-20T23:47:06.562Z,17.27
2019-02-20T23:50:15.178Z,16.07
2019-02-20T23:53:23.759Z,13.77
2019-02-20T23:56:32.255Z,17.20
2019-02-20T23:59:40.971Z,15.40
